createdAt,value
2022-12-08T00:03:20.173Z,4.33
2022-12-08T00:09:00.922Z,4.20
2022-12-08T00:14:35.388Z,4.63
2022-12-08T00:19:57.532Z,4.67
2022-12-08T00:25:19.882Z,5.67
2022-12-08T00:30:42.970Z,5.13
2022-12-08T00:36:13.830Z,5.07
2022-12-08T00:41:54.993Z,4.87
2022-12-08T00:47:22.169Z,4.87
2022-12-08T00:52:47.074Z,4.63
2022-12-08T00:58:09.188Z,4.80
2022-12-08T01:03:31.844Z,4.60
2022-12-08T01:08:54.958Z,5.00
2022-12-08T01:14:17.590Z,4.83
2022-12-08T01:19:39.972Z,5.40
2022-12-08T01:25:03.112Z,5.03
2022-12-08T01:30:25.368Z,4.63
2022-12-08T01:35:47.801Z,5.23
2022-12-08T01:41:14.171Z,5.77
2022-12-08T01:46:41.897Z,4.63
2022-12-08T01:52:07.198Z,4.30
2022-12-08T01:57:35.213Z,5.07
2022-12-08T02:03:02.452Z,4.17
2022-12-08T02:08:26.140Z,3.83
2022-12-08T02:13:50.657Z,4.43
2022-12-08T02:19:51.881Z,4.53
2022-12-08T02:25:26.186Z,4.10
2022-12-08T02:31:20.136Z,4.20
2022-12-08T02:37:08.689Z,4.30
2022-12-08T02:42:39.376Z,4.20
2022-12-08T02:48:02.666Z,3.80
2022-12-08T02:53:28.093Z,4.47
2022-12-08T02:59:09.024Z,5.17
2022-12-08T03:05:03.708Z,3.87
2022-12-08T03:10:32.541Z,4.77
2022-12-08T03:15:56.552Z,4.93
2022-12-08T03:21:20.627Z,4.40
2022-12-08T03:26:56.995Z,4.77
2022-12-08T03:32:41.226Z,4.47
2022-12-08T03:38:10.736Z,4.23
2022-12-08T03:43:33.090Z,4.50
2022-12-08T03:48:56.301Z,3.67
2022-12-08T03:54:20.592Z,3.60
2022-12-08T03:59:42.863Z,3.67
2022-12-08T04:05:05.488Z,3.13
2022-12-08T04:10:27.581Z,3.10
2022-12-08T04:15:49.811Z,3.33
2022-12-08T04:21:15.135Z,3.50
2022-12-08T04:26:37.603Z,2.80
2022-12-08T04:31:59.926Z,3.47
2022-12-08T04:37:23.100Z,4.03
2022-12-08T04:42:46.758Z,4.57
2022-12-08T04:48:10.036Z,4.70
2022-12-08T04:53:32.806Z,5.20
2022-12-08T04:58:55.168Z,4.70
2022-12-08T05:04:17.708Z,5.37
2022-12-08T05:09:39.926Z,5.37
2022-12-08T05:15:02.730Z,5.70
2022-12-08T05:20:24.980Z,6.43
2022-12-08T05:25:47.505Z,5.77
2022-12-08T05:31:11.722Z,6.07
2022-12-08T05:36:33.960Z,5.53
2022-12-08T05:41:56.446Z,6.67
2022-12-08T05:47:18.713Z,6.50
2022-12-08T05:52:41.050Z,6.67
2022-12-08T05:58:07.840Z,6.20
2022-12-08T06:03:30.882Z,6.97
2022-12-08T06:08:53.666Z,7.33
2022-12-08T06:14:16.220Z,6.60
2022-12-08T06:19:40.941Z,7.30
2022-12-08T06:25:08.491Z,7.10
2022-12-08T06:30:32.220Z,7.83
2022-12-08T06:35:54.830Z,7.73
2022-12-08T06:41:18.150Z,7.57
2022-12-08T06:46:40.517Z,6.90
2022-12-08T06:52:03.380Z,7.83
2022-12-08T06:57:26.351Z,6.83
2022-12-08T07:02:49.247Z,8.17
2022-12-08T07:08:12.080Z,7.70
2022-12-08T07:13:34.550Z,7.40
2022-12-08T07:18:56.947Z,9.20
2022-12-08T07:24:19.550Z,7.90
2022-12-08T07:29:42.175Z,7.63
2022-12-08T07:35:05.638Z,8.50
2022-12-08T07:40:28.139Z,8.17
2022-12-08T07:45:51.207Z,7.73
2022-12-08T07:51:15.082Z,8.60
2022-12-08T07:56:37.553Z,8.20
2022-12-08T08:02:23.021Z,7.47
2022-12-08T08:07:43.833Z,7.60
2022-12-08T08:13:06.405Z,7.60
2022-12-08T08:18:28.858Z,7.20
2022-12-08T08:23:51.608Z,7.83
2022-12-08T08:29:13.875Z,7.83
2022-12-08T08:34:36.212Z,6.93
2022-12-08T08:39:58.389Z,7.07
2022-12-08T08:45:20.959Z,7.87
2022-12-08T08:50:43.333Z,7.70
2022-12-08T08:56:19.340Z,7.87
2022-12-08T09:01:42.035Z,9.30
2022-12-08T09:07:04.300Z,7.60
2022-12-08T09:12:26.731Z,8.97
2022-12-08T09:17:48.938Z,8.10
2022-12-08T09:23:11.498Z,9.20
2022-12-08T09:28:34.808Z,7.90
2022-12-08T09:33:57.914Z,7.50
2022-12-08T09:39:21.177Z,7.87
2022-12-08T09:44:55.332Z,7.97
2022-12-08T09:50:37.144Z,7.23
2022-12-08T09:56:22.493Z,7.80
2022-12-08T10:01:44.844Z,7.70
2022-12-08T10:07:33.957Z,8.67
2022-12-08T10:13:14.060Z,8.67
2022-12-08T10:18:37.890Z,8.73
2022-12-08T10:24:07.267Z,8.20
2022-12-08T10:29:29.668Z,8.77
2022-12-08T10:35:08.246Z,9.90
2022-12-08T10:40:42.182Z,8.47
2022-12-08T10:46:13.240Z,8.40
2022-12-08T10:51:38.538Z,8.57
2022-12-08T10:57:00.876Z,9.57
2022-12-08T11:02:23.414Z,8.50
2022-12-08T11:07:55.086Z,7.70
2022-12-08T11:13:27.687Z,8.93
2022-12-08T11:18:57.214Z,8.10
2022-12-08T11:24:24.357Z,7.63
2022-12-08T11:29:46.554Z,7.13
2022-12-08T11:35:15.298Z,7.57
2022-12-08T11:40:39.938Z,7.83
2022-12-08T11:46:11.745Z,7.53
2022-12-08T11:51:43.105Z,8.90
2022-12-08T11:57:12.766Z,8.43
2022-12-08T12:02:42.706Z,7.57
2022-12-08T12:08:29.710Z,8.80
2022-12-08T12:14:20.352Z,7.90
2022-12-08T12:19:42.703Z,8.37
2022-12-08T12:25:05.971Z,8.43
2022-12-08T12:30:49.142Z,8.87
2022-12-08T12:36:13.063Z,9.07
2022-12-08T12:41:44.254Z,7.73
2022-12-08T12:47:12.320Z,7.70
2022-12-08T12:52:34.679Z,7.03
2022-12-08T12:57:58.945Z,6.60
2022-12-08T13:03:24.775Z,6.53
2022-12-08T13:08:55.272Z,5.77
2022-12-08T13:14:28.481Z,6.33
2022-12-08T13:19:56.184Z,6.67
2022-12-08T13:25:40.586Z,7.00
2022-12-08T13:31:03.819Z,6.77
2022-12-08T13:36:35.512Z,6.93
2022-12-08T13:42:12.775Z,7.20
2022-12-08T13:47:54.343Z,7.03
2022-12-08T13:54:36.727Z,7.67
2022-12-08T13:59:34.360Z,7.33
2022-12-08T14:10:39.373Z,8.67
2022-12-08T14:16:02.797Z,8.07
2022-12-08T14:21:34.407Z,9.43
2022-12-08T14:27:02.478Z,9.97
2022-12-08T14:32:42.670Z,10.70
2022-12-08T14:38:15.556Z,8.77
2022-12-08T14:43:41.103Z,9.10
2022-12-08T14:49:04.340Z,9.13
2022-12-08T14:54:31.095Z,6.67
2022-12-08T14:59:53.884Z,8.20
2022-12-08T15:05:19.872Z,10.47
2022-12-08T15:10:48.167Z,8.30
2022-12-08T15:16:28.250Z,5.77
2022-12-08T15:21:51.255Z,6.60
2022-12-08T15:27:19.166Z,5.73
2022-12-08T15:32:41.725Z,7.13
2022-12-08T15:38:05.311Z,7.83
2022-12-08T15:43:27.876Z,6.63
2022-12-08T15:48:54.961Z,5.53
2022-12-08T15:54:20.407Z,5.73
2022-12-08T15:59:42.848Z,8.47
2022-12-08T16:05:41.065Z,16.70
2022-12-08T16:11:29.142Z,9.93
2022-12-08T16:16:33.264Z,17.40
2022-12-08T16:33:21.306Z,15.00
2022-12-08T16:38:43.546Z,27.03
2022-12-08T16:44:06.659Z,29.33
2022-12-08T16:49:29.171Z,16.43
2022-12-08T16:54:51.326Z,9.57
2022-12-08T17:00:22.437Z,6.03
2022-12-08T17:05:45.039Z,6.47
2022-12-08T17:11:08.240Z,8.87
2022-12-08T17:16:30.426Z,11.63
2022-12-08T17:21:52.903Z,18.10
2022-12-08T17:27:14.925Z,21.43
2022-12-08T17:32:40.384Z,12.93
2022-12-08T17:38:03.026Z,8.53
2022-12-08T17:43:25.514Z,9.40
2022-12-08T17:48:48.144Z,8.80
2022-12-08T17:54:10.525Z,7.47
2022-12-08T17:59:32.977Z,6.90
2022-12-08T18:04:55.672Z,6.63
2022-12-08T18:10:18.670Z,7.30
2022-12-08T18:15:41.123Z,6.20
2022-12-08T18:21:04.001Z,7.47
2022-12-08T18:26:26.836Z,7.00
2022-12-08T18:31:49.668Z,7.00
2022-12-08T18:37:12.039Z,6.83
2022-12-08T18:42:34.533Z,5.90
2022-12-08T18:47:57.081Z,7.20
2022-12-08T18:53:19.544Z,6.80
2022-12-08T18:58:42.040Z,6.03
2022-12-08T19:09:49.246Z,7.60
2022-12-08T19:15:11.905Z,9.80
2022-12-08T19:20:34.098Z,10.70
2022-12-08T19:25:56.434Z,12.80
2022-12-08T19:31:19.142Z,14.00
2022-12-08T19:36:45.263Z,12.97
2022-12-08T19:42:37.710Z,13.40
2022-12-08T19:48:00.155Z,10.40
2022-12-08T19:53:24.620Z,10.30
2022-12-08T19:58:47.116Z,12.30
2022-12-08T20:04:14.562Z,12.20
2022-12-08T20:09:37.224Z,12.40
2022-12-08T20:15:00.032Z,11.90
2022-12-08T20:20:23.393Z,12.90
2022-12-08T20:25:47.608Z,11.60
2022-12-08T20:31:21.642Z,11.43
2022-12-08T20:36:44.883Z,10.20
2022-12-08T20:42:07.341Z,11.13
2022-12-08T20:47:29.506Z,10.93
2022-12-08T20:52:52.065Z,9.73
2022-12-08T20:58:14.482Z,10.77
2022-12-08T21:03:37.151Z,10.20
2022-12-08T21:09:00.122Z,10.07
2022-12-08T21:14:23.312Z,9.97
2022-12-08T21:19:45.641Z,9.33
2022-12-08T21:25:08.970Z,10.00
2022-12-08T21:30:31.321Z,10.07
2022-12-08T21:36:02.517Z,9.80
2022-12-08T21:41:43.494Z,9.30
2022-12-08T21:47:06.555Z,9.93
2022-12-08T21:52:29.123Z,10.53
2022-12-08T21:57:51.478Z,11.87
2022-12-08T22:03:15.511Z,13.37
2022-12-08T22:08:39.031Z,13.83
2022-12-08T22:14:02.694Z,10.03
2022-12-08T22:19:24.869Z,11.17
2022-12-08T22:24:47.174Z,12.60
2022-12-08T22:30:10.639Z,11.33
2022-12-08T22:35:33.766Z,10.87
2022-12-08T22:40:58.656Z,9.63
2022-12-08T22:46:23.679Z,8.87
2022-12-08T22:51:45.860Z,9.80
2022-12-08T22:57:08.139Z,8.87
2022-12-08T23:02:30.896Z,9.83
2022-12-08T23:07:53.489Z,9.97
2022-12-08T23:13:16.825Z,9.40
2022-12-08T23:18:44.460Z,8.70
2022-12-08T23:24:07.394Z,9.37
2022-12-08T23:29:29.990Z,9.37
2022-12-08T23:34:52.428Z,9.13
2022-12-08T23:40:14.678Z,8.20
2022-12-08T23:45:36.876Z,8.80
2022-12-08T23:50:59.390Z,8.23
2022-12-08T23:56:24.366Z,9.17
